createdAt,value
2019-03-25T00:00:17.053Z,9.63
2019-03-25T00:01:17.806Z,9.62
2019-03-25T00:02:18.060Z,9.67
2019-03-25T00:03:18.812Z,9.66
2019-03-25T00:04:19.297Z,9.73
2019-03-25T00:05:20.612Z,9.63
2019-03-25T00:06:20.640Z,9.66
2019-03-25T00:07:20.840Z,9.63
2019-03-25T00:08:22.149Z,9.55
2019-03-25T00:09:06.395Z,9.55
2019-03-25T00:10:05.783Z,9.36
2019-03-25T00:11:06.540Z,9.39
2019-03-25T00:12:07.017Z,9.31
2019-03-25T00:13:07.213Z,9.34
2019-03-25T00:14:07.970Z,9.37
2019-03-25T00:15:08.167Z,9.36
2019-03-25T00:16:09.207Z,9.39
2019-03-25T00:17:10.243Z,9.42
2019-03-25T00:18:10.548Z,9.44
2019-03-25T00:19:11.598Z,9.45
2019-03-25T00:20:12.101Z,9.54
2019-03-25T00:21:12.853Z,9.47
2019-03-25T00:22:13.611Z,9.52
2019-03-25T00:23:13.922Z,9.52
2019-03-25T00:24:15.287Z,9.54
2019-03-25T00:25:15.764Z,9.54
2019-03-25T00:26:16.532Z,9.55
2019-03-25T00:27:16.729Z,9.67
2019-03-25T00:28:17.205Z,9.62
2019-03-25T00:29:17.957Z,9.66
2019-03-25T00:30:18.626Z,9.62
2019-03-25T00:31:18.851Z,9.67
2019-03-25T00:32:19.885Z,9.8
2019-03-25T00:33:20.918Z,9.76
2019-03-25T00:34:21.670Z,9.72
2019-03-25T00:35:22.147Z,9.62
2019-03-25T00:36:22.898Z,9.63
2019-03-25T00:37:23.948Z,9.59
2019-03-25T00:38:25.540Z,9.72
2019-03-25T00:39:25.743Z,9.67
2019-03-25T00:40:26.375Z,9.64
2019-03-25T00:41:26.850Z,9.69
2019-03-25T00:42:26.886Z,9.69
2019-03-25T00:43:27.637Z,9.64
2019-03-25T00:44:28.125Z,9.72
2019-03-25T00:45:28.881Z,9.77
2019-03-25T00:46:29.911Z,9.76
2019-03-25T00:47:30.667Z,9.74
2019-03-25T00:48:31.145Z,9.64
2019-03-25T00:49:32.171Z,9.67
2019-03-25T00:50:32.399Z,9.67
2019-03-25T00:51:33.193Z,9.69
2019-03-25T00:52:34.280Z,9.77
2019-03-25T00:53:35.039Z,9.73
2019-03-25T00:54:35.539Z,9.74
2019-03-25T00:55:36.292Z,9.81
2019-03-25T00:56:36.803Z,9.87
2019-03-25T00:57:37.556Z,9.82
2019-03-25T00:58:38.032Z,9.87
2019-03-25T00:59:38.229Z,9.81
2019-03-25T01:00:39.199Z,9.84
2019-03-25T01:01:39.677Z,9.84
2019-03-25T01:02:40.155Z,9.81
2019-03-25T01:03:40.915Z,9.82
2019-03-25T01:04:41.118Z,9.84
2019-03-25T01:05:41.598Z,9.81
2019-03-25T01:06:42.076Z,9.85
2019-03-25T01:07:43.385Z,9.8
2019-03-25T01:08:43.157Z,9.76
2019-03-25T01:09:43.634Z,9.73
2019-03-25T01:10:43.992Z,9.69
2019-03-25T01:11:50.548Z,9.63
2019-03-25T01:11:54.312Z,9.7
2019-03-25T01:12:55.521Z,9.66
2019-03-25T01:13:55.994Z,9.63
2019-03-25T01:14:57.305Z,9.69
2019-03-25T01:15:57.783Z,9.77
2019-03-25T01:16:58.537Z,9.76
2019-03-25T01:17:59.289Z,9.73
2019-03-25T01:19:00.044Z,9.73
2019-03-25T01:20:00.878Z,9.84
2019-03-25T01:21:00.639Z,9.84
2019-03-25T01:22:02.004Z,9.8
2019-03-25T01:23:02.198Z,9.85
2019-03-25T01:24:02.235Z,9.7
2019-03-25T01:25:04.246Z,9.84
2019-03-25T01:26:04.998Z,9.87
2019-03-25T01:27:05.756Z,9.82
2019-03-25T01:28:06.789Z,9.76
2019-03-25T01:29:06.995Z,9.73
2019-03-25T01:30:08.055Z,9.74
2019-03-25T01:31:08.804Z,9.74
2019-03-25T01:32:10.116Z,9.66
2019-03-25T01:33:11.097Z,9.69
2019-03-25T01:34:11.628Z,9.47
2019-03-25T01:35:11.986Z,9.51
2019-03-25T01:36:13.021Z,9.49
2019-03-25T01:37:13.492Z,9.42
2019-03-25T01:38:14.520Z,9.39
2019-03-25T01:39:15.565Z,9.34
2019-03-25T01:40:16.321Z,9.31
2019-03-25T01:41:17.635Z,9.22
2019-03-25T01:42:17.671Z,9.26
2019-03-25T01:43:18.862Z,9.22
2019-03-25T01:44:19.617Z,9.09
2019-03-25T01:45:20.101Z,9.09
2019-03-25T01:46:20.873Z,9.12
2019-03-25T01:47:21.347Z,9.12
2019-03-25T01:48:21.546Z,9
2019-03-25T01:49:21.768Z,9.05
2019-03-25T01:50:22.244Z,9.05
2019-03-25T01:51:23.001Z,8.96
2019-03-25T01:52:23.477Z,9.05
2019-03-25T01:53:24.120Z,9.03
2019-03-25T01:54:24.919Z,9.02
2019-03-25T01:55:26.505Z,8.99
2019-03-25T01:56:27.300Z,8.99
2019-03-25T01:57:27.774Z,9.11
2019-03-25T01:58:28.527Z,9.08
2019-03-25T01:59:29.277Z,9
2019-03-25T02:00:30.025Z,9.08
2019-03-25T02:01:30.503Z,9.05
2019-03-25T02:02:31.542Z,9.11
2019-03-25T02:03:32.522Z,9.03
2019-03-25T02:04:33.280Z,8.92
2019-03-25T02:05:33.756Z,8.95
2019-03-25T02:06:35.065Z,8.95
2019-03-25T02:07:35.827Z,8.92
2019-03-25T02:08:36.305Z,8.96
2019-03-25T02:09:36.826Z,9.03
2019-03-25T02:10:37.856Z,8.99
2019-03-25T02:11:38.510Z,9.09
2019-03-25T02:12:38.543Z,9
2019-03-25T02:13:39.252Z,9.05
2019-03-25T02:14:39.736Z,9.09
2019-03-25T02:15:39.798Z,8.9
2019-03-25T02:16:40.274Z,9.08
2019-03-25T02:17:41.048Z,9.05
2019-03-25T02:18:41.523Z,9.12
2019-03-25T02:19:42.552Z,9.13
2019-03-25T02:20:43.302Z,9.13
2019-03-25T02:21:44.608Z,9.13
2019-03-25T02:22:47.154Z,9.12
2019-03-25T02:23:46.911Z,9.03
2019-03-25T02:24:47.107Z,9.09
2019-03-25T02:25:47.585Z,9.16
2019-03-25T02:26:48.076Z,9.08
2019-03-25T02:27:48.833Z,9.02
2019-03-25T02:28:50.471Z,9.05
2019-03-25T02:29:50.948Z,9.09
2019-03-25T02:30:51.979Z,9.13
2019-03-25T02:31:52.851Z,9.12
2019-03-25T02:32:53.746Z,9.08
2019-03-25T02:33:54.097Z,9.02
2019-03-25T02:34:55.075Z,9.03
2019-03-25T02:35:56.231Z,9.15
2019-03-25T02:36:57.379Z,8.99
2019-03-25T02:37:57.716Z,9.08
2019-03-25T02:38:59.337Z,9.02
2019-03-25T02:40:01.019Z,9.05
2019-03-25T02:41:00.674Z,9
2019-03-25T02:42:02.285Z,9.08
2019-03-25T02:43:03.266Z,9.11
2019-03-25T02:44:03.829Z,9.13
2019-03-25T02:45:05.444Z,9.24
2019-03-25T02:46:05.517Z,9.21
2019-03-25T02:47:06.110Z,9.3
2019-03-25T02:48:06.876Z,9.18
2019-03-25T02:49:08.196Z,9.3
2019-03-25T02:50:09.522Z,9.26
2019-03-25T02:51:09.578Z,9.19
2019-03-25T02:52:11.220Z,9.24
2019-03-25T02:53:11.531Z,9.21
2019-03-25T02:54:12.452Z,9.11
2019-03-25T02:55:13.062Z,9.15
2019-03-25T02:56:13.673Z,9.16
2019-03-25T02:57:14.450Z,9.16
2019-03-25T02:58:15.668Z,9.19
2019-03-25T02:59:16.289Z,9.29
2019-03-25T03:00:17.762Z,9.31
2019-03-25T03:01:18.360Z,9.19
2019-03-25T03:02:18.705Z,9.18
2019-03-25T03:03:19.045Z,9.15
2019-03-25T03:04:20.372Z,9.13
2019-03-25T03:05:20.709Z,9.09
2019-03-25T03:06:21.170Z,9.16
2019-03-25T03:07:22.608Z,9.11
2019-03-25T03:08:22.380Z,9.08
2019-03-25T03:09:23.144Z,9.08
2019-03-25T03:10:25.102Z,9.05
2019-03-25T03:11:25.423Z,8.97
2019-03-25T03:12:26.467Z,9.02
2019-03-25T03:13:26.529Z,8.97
2019-03-25T03:14:28.321Z,9.05
2019-03-25T03:15:28.709Z,9.09
2019-03-25T03:16:29.477Z,9
2019-03-25T03:17:29.708Z,9.05
2019-03-25T03:18:30.859Z,9.13
2019-03-25T03:19:32.033Z,9.02
2019-03-25T03:20:32.115Z,9.05
2019-03-25T03:21:33.023Z,9.05
2019-03-25T03:22:33.053Z,8.93
2019-03-25T03:23:34.233Z,8.97
2019-03-25T03:24:17.654Z,9.05
2019-03-25T03:25:18.637Z,9
2019-03-25T03:26:19.704Z,9.03
2019-03-25T03:27:20.035Z,9.03
2019-03-25T03:28:21.646Z,9.11
2019-03-25T03:29:22.800Z,9.15
2019-03-25T03:30:23.679Z,9.02
2019-03-25T03:31:25.386Z,9.12
2019-03-25T03:32:26.874Z,9.13
2019-03-25T03:33:26.813Z,9.11
2019-03-25T03:34:28.748Z,9.09
2019-03-25T03:35:29.171Z,9.11
2019-03-25T03:36:29.527Z,9.18
2019-03-25T03:37:30.644Z,9.09
2019-03-25T03:38:31.967Z,9.13
2019-03-25T03:39:33.021Z,9
2019-03-25T03:40:34.075Z,9.13
2019-03-25T03:41:34.237Z,9.18
2019-03-25T03:42:34.323Z,9.16
2019-03-25T03:43:35.096Z,9.11
2019-03-25T03:44:36.419Z,9.11
2019-03-25T03:45:37.753Z,9.08
2019-03-25T03:46:38.010Z,9
2019-03-25T03:47:39.051Z,9.09
2019-03-25T03:48:40.371Z,9.03
2019-03-25T03:49:40.970Z,9.08
2019-03-25T03:50:42.022Z,9.08
2019-03-25T03:51:42.635Z,9.09
2019-03-25T03:52:43.409Z,9
2019-03-25T03:53:44.776Z,9.08
2019-03-25T03:54:45.543Z,9.08
2019-03-25T03:55:46.049Z,9.08
2019-03-25T03:56:47.650Z,9.08
2019-03-25T03:57:48.279Z,9.18
2019-03-25T03:58:48.878Z,9
2019-03-25T03:59:48.669Z,9.02
2019-03-25T04:00:49.746Z,8.95
2019-03-25T04:01:51.324Z,9.03
2019-03-25T04:02:51.923Z,9.02
2019-03-25T04:03:52.799Z,9.03
2019-03-25T04:04:54.540Z,9.02
2019-03-25T04:05:54.886Z,9.03
2019-03-25T04:06:55.546Z,9.03
2019-03-25T04:07:55.908Z,9
2019-03-25T04:08:57.780Z,9.12
2019-03-25T04:09:58.399Z,9.08
2019-03-25T04:10:59.011Z,9.03
2019-03-25T04:11:59.712Z,9.12
2019-03-25T04:13:00.610Z,9.03
2019-03-25T04:14:01.241Z,9.02
2019-03-25T04:15:02.249Z,8.95
2019-03-25T04:16:03.647Z,9.08
2019-03-25T04:17:04.558Z,9.09
2019-03-25T04:18:05.238Z,9.08
2019-03-25T04:19:05.572Z,9.02
2019-03-25T04:20:07.197Z,9.09
2019-03-25T04:21:08.093Z,9.09
2019-03-25T04:22:09.443Z,8.9
2019-03-25T04:23:09.803Z,9.09
2019-03-25T04:24:10.721Z,9.08
2019-03-25T04:25:11.115Z,9
2019-03-25T04:26:27.152Z,9.05
2019-03-25T04:26:32.476Z,9.08
2019-03-25T04:27:32.656Z,9.03
2019-03-25T04:28:33.707Z,9.13
2019-03-25T04:29:34.603Z,9.12
2019-03-25T04:30:34.628Z,9.13
2019-03-25T04:31:35.221Z,9.15
2019-03-25T04:32:35.548Z,9.12
2019-03-25T04:33:37.128Z,9.02
2019-03-25T04:34:37.257Z,9.05
2019-03-25T04:35:38.040Z,9.02
2019-03-25T04:36:38.629Z,9.05
2019-03-25T04:37:39.239Z,9
2019-03-25T04:38:40.016Z,9.09
2019-03-25T04:39:40.606Z,9.08
2019-03-25T04:40:40.922Z,9.08
2019-03-25T04:41:42.285Z,9.15
2019-03-25T04:42:42.603Z,9.12
2019-03-25T04:43:43.355Z,9.15
2019-03-25T04:44:43.833Z,9.13
2019-03-25T04:45:44.318Z,9.11
2019-03-25T04:46:44.796Z,9.09
2019-03-25T04:47:46.049Z,9.16
2019-03-25T04:48:46.803Z,9.09
2019-03-25T04:49:47.669Z,9.13
2019-03-25T04:50:47.978Z,9.13
2019-03-25T04:51:48.455Z,9.13
2019-03-25T04:52:48.929Z,9.08
2019-03-25T04:53:49.965Z,9.16
2019-03-25T04:54:50.718Z,9.12
2019-03-25T04:55:51.002Z,9.05
2019-03-25T04:56:51.478Z,9.03
2019-03-25T04:57:52.024Z,9
2019-03-25T04:58:53.340Z,9.12
2019-03-25T04:59:54.092Z,9.03
2019-03-25T05:00:55.136Z,9.08
2019-03-25T05:01:55.757Z,9.03
2019-03-25T05:02:56.515Z,9.03
2019-03-25T05:03:57.012Z,9.03
2019-03-25T05:04:57.485Z,9.05
2019-03-25T05:05:59.080Z,8.96
2019-03-25T05:07:00.391Z,9.08
2019-03-25T05:08:00.312Z,8.96
2019-03-25T05:09:00.785Z,9.02
2019-03-25T05:10:01.546Z,8.95
2019-03-25T05:11:04.800Z,9.02
2019-03-25T05:12:05.841Z,9.03
2019-03-25T05:13:06.160Z,9.02
2019-03-25T05:14:07.197Z,9.11
2019-03-25T05:15:07.971Z,9.03
2019-03-25T05:16:09.023Z,8.96
2019-03-25T05:17:10.057Z,8.81
2019-03-25T05:18:11.133Z,8.9
2019-03-25T05:19:11.633Z,8.74
2019-03-25T05:20:12.116Z,8.74
2019-03-25T05:21:12.881Z,8.68
2019-03-25T05:22:13.364Z,8.6
2019-03-25T05:23:14.131Z,8.57
2019-03-25T05:24:14.331Z,8.59
2019-03-25T05:25:15.388Z,8.59
2019-03-25T05:26:15.878Z,8.64
2019-03-25T05:27:16.410Z,8.61
2019-03-25T05:28:16.923Z,8.61
2019-03-25T05:29:17.680Z,8.59
2019-03-25T05:30:18.431Z,8.59
2019-03-25T05:31:18.696Z,8.66
2019-03-25T05:32:19.453Z,8.61
2019-03-25T05:33:20.767Z,8.68
2019-03-25T05:34:21.813Z,8.6
2019-03-25T05:35:21.851Z,8.64
2019-03-25T05:36:22.047Z,8.68
2019-03-25T05:37:22.807Z,8.63
2019-03-25T05:38:23.024Z,8.57
2019-03-25T05:39:23.504Z,8.59
2019-03-25T05:40:23.982Z,8.52
2019-03-25T05:41:24.188Z,8.57
2019-03-25T05:42:24.955Z,8.54
2019-03-25T05:43:25.265Z,8.63
2019-03-25T05:44:26.020Z,8.6
2019-03-25T05:45:26.498Z,8.61
2019-03-25T05:46:26.969Z,8.61
2019-03-25T05:47:27.722Z,8.59
2019-03-25T05:48:29.331Z,8.54
2019-03-25T05:49:29.536Z,8.57
2019-03-25T05:50:31.188Z,8.56
2019-03-25T05:51:32.550Z,8.57
2019-03-25T05:52:33.887Z,8.52
2019-03-25T05:53:34.423Z,8.41
2019-03-25T05:54:34.907Z,8.36
2019-03-25T05:55:35.938Z,8.38
2019-03-25T05:56:36.708Z,8.41
2019-03-25T05:57:36.918Z,8.36
2019-03-25T05:58:37.846Z,8.42
2019-03-25T05:59:38.710Z,8.41
2019-03-25T06:00:39.023Z,8.44
2019-03-25T06:01:40.058Z,8.41
2019-03-25T06:02:40.894Z,8.39
2019-03-25T06:03:41.097Z,8.41
2019-03-25T06:04:42.137Z,8.45
2019-03-25T06:05:42.389Z,8.46
2019-03-25T06:06:43.149Z,8.41
2019-03-25T06:07:43.625Z,8.34
2019-03-25T06:08:44.281Z,8.39
2019-03-25T06:09:44.483Z,8.39
2019-03-25T06:10:44.956Z,8.35
2019-03-25T06:11:45.448Z,8.35
2019-03-25T06:12:46.772Z,8.32
2019-03-25T06:13:47.253Z,8.31
2019-03-25T06:14:47.468Z,8.32
2019-03-25T06:15:48.225Z,8.32
2019-03-25T06:16:48.426Z,8.35
2019-03-25T06:17:48.904Z,8.24
2019-03-25T06:18:49.568Z,8.31
2019-03-25T06:19:50.328Z,8.31
2019-03-25T06:20:50.813Z,8.24
2019-03-25T06:21:51.290Z,8.27
2019-03-25T06:22:52.323Z,8.21
2019-03-25T06:23:52.805Z,8.2
2019-03-25T06:24:54.119Z,8.24
2019-03-25T06:25:54.320Z,8.23
2019-03-25T06:26:55.094Z,8.24
2019-03-25T06:27:56.131Z,8.24
2019-03-25T06:28:56.953Z,8.18
2019-03-25T06:29:57.153Z,8.18
2019-03-25T06:30:57.918Z,8.18
2019-03-25T06:31:58.702Z,8.23
2019-03-25T06:32:59.462Z,8.18
2019-03-25T06:33:13.510Z,8.18
2019-03-25T06:34:10.059Z,8.18
2019-03-25T06:35:10.817Z,8.26
2019-03-25T06:36:11.295Z,8.16
2019-03-25T06:37:11.777Z,8.18
2019-03-25T06:38:12.709Z,8.18
2019-03-25T06:39:13.196Z,8.18
2019-03-25T06:40:14.025Z,8.24
2019-03-25T06:41:15.340Z,8.24
2019-03-25T06:42:15.816Z,8.23
2019-03-25T06:43:16.618Z,8.17
2019-03-25T06:44:17.415Z,8.2
2019-03-25T06:45:18.612Z,8.2
2019-03-25T06:46:18.761Z,8.2
2019-03-25T06:47:19.974Z,8.24
2019-03-25T06:48:20.306Z,8.23
2019-03-25T06:49:21.352Z,8.27
2019-03-25T06:50:21.679Z,8.31
2019-03-25T06:51:23.278Z,8.2
2019-03-25T06:52:22.778Z,8.27
2019-03-25T06:53:23.813Z,8.14
2019-03-25T06:54:24.396Z,8.31
2019-03-25T06:55:25.794Z,8.27
2019-03-25T06:56:26.910Z,8.28
2019-03-25T06:57:27.626Z,8.28
2019-03-25T06:58:28.015Z,8.35
2019-03-25T06:59:29.174Z,8.24
2019-03-25T07:00:30.377Z,8.28
2019-03-25T07:01:30.358Z,8.34
2019-03-25T07:02:30.561Z,8.32
2019-03-25T07:03:33.988Z,8.27
2019-03-25T07:04:35.079Z,8.42
2019-03-25T07:05:35.850Z,8.36
2019-03-25T07:06:38.484Z,8.53
2019-03-25T07:07:40.437Z,8.56
2019-03-25T07:08:42.455Z,8.5
2019-03-25T07:09:42.209Z,8.52
2019-03-25T07:10:42.687Z,8.35
2019-03-25T07:11:43.282Z,8.41
2019-03-25T07:12:44.037Z,8.46
2019-03-25T07:13:44.923Z,8.41
2019-03-25T07:14:46.410Z,8.36
2019-03-25T07:15:46.952Z,8.38
2019-03-25T07:16:51.520Z,8.35
2019-03-25T07:17:00.851Z,8.42
2019-03-25T07:17:11.279Z,8.36
2019-03-25T07:17:19.736Z,8.35
2019-03-25T07:17:31.817Z,8.38
2019-03-25T07:17:41.649Z,8.38
2019-03-25T07:17:52.937Z,8.41
2019-03-25T07:18:02.262Z,8.41
2019-03-25T07:18:12.709Z,8.41
2019-03-25T07:18:22.192Z,8.46
2019-03-25T07:19:20.681Z,8.39
2019-03-25T07:20:21.545Z,8.49
2019-03-25T07:21:23.766Z,8.5
2019-03-25T07:22:23.807Z,8.42
2019-03-25T07:23:24.320Z,8.53
2019-03-25T07:24:25.394Z,8.49
2019-03-25T07:25:25.251Z,8.36
2019-03-25T07:26:25.911Z,8.41
2019-03-25T07:27:38.345Z,8.41
2019-03-25T07:28:40.040Z,8.42
2019-03-25T07:29:40.254Z,8.36
2019-03-25T07:30:41.312Z,8.39
2019-03-25T07:31:42.364Z,8.39
2019-03-25T07:32:43.402Z,8.41
2019-03-25T07:33:45.786Z,8.31
2019-03-25T07:34:46.088Z,8.24
2019-03-25T07:35:48.857Z,8.16
2019-03-25T07:36:49.128Z,8.27
2019-03-25T07:37:50.689Z,8.2
2019-03-25T07:38:51.314Z,8.18
2019-03-25T07:39:51.698Z,8.14
2019-03-25T07:40:53.072Z,8.17
2019-03-25T07:41:54.735Z,8.13
2019-03-25T07:42:55.082Z,8.08
2019-03-25T07:43:03.276Z,8.08
2019-03-25T07:44:05.487Z,8.14
2019-03-25T07:44:14.813Z,8.08
2019-03-25T07:45:17.125Z,8.08
2019-03-25T07:46:18.416Z,8.08
2019-03-25T07:47:18.167Z,8.23
2019-03-25T07:48:20.250Z,8.06
2019-03-25T07:49:20.142Z,8.17
2019-03-25T07:50:22.823Z,8.18
2019-03-25T07:51:24.854Z,8.17
2019-03-25T07:52:26.691Z,8.16
2019-03-25T07:53:28.379Z,8.05
2019-03-25T07:54:29.449Z,8.11
2019-03-25T07:55:29.192Z,8.17
2019-03-25T07:56:29.623Z,8.14
2019-03-25T07:57:30.399Z,8.14
2019-03-25T07:58:31.748Z,8.16
2019-03-25T07:59:33.768Z,8.11
2019-03-25T08:00:35.750Z,7.96
2019-03-25T08:01:35.238Z,7.85
2019-03-25T08:02:35.795Z,7.81
2019-03-25T08:03:37.223Z,7.98
2019-03-25T08:04:40.429Z,7.78
2019-03-25T08:05:42.399Z,7.88
2019-03-25T08:06:42.327Z,7.88
2019-03-25T08:07:43.880Z,7.87
2019-03-25T08:08:46.058Z,7.84
2019-03-25T08:09:47.420Z,7.85
2019-03-25T08:10:47.805Z,7.9
2019-03-25T08:11:49.639Z,7.84
2019-03-25T08:12:49.839Z,7.95
2019-03-25T08:13:52.682Z,7.88
2019-03-25T08:14:51.513Z,7.84
2019-03-25T08:15:52.186Z,7.81
2019-03-25T08:16:53.735Z,7.84
2019-03-25T08:17:54.541Z,7.77
2019-03-25T08:18:56.503Z,7.7
2019-03-25T08:19:56.082Z,7.64
2019-03-25T08:20:57.793Z,7.7
2019-03-25T08:21:58.752Z,7.62
2019-03-25T08:22:59.231Z,7.62
2019-03-25T08:24:00.809Z,7.61
2019-03-25T08:25:01.016Z,7.58
2019-03-25T08:26:02.618Z,7.69
2019-03-25T08:27:03.765Z,7.62
2019-03-25T08:28:03.633Z,7.72
2019-03-25T08:29:04.621Z,7.66
2019-03-25T08:30:05.003Z,7.61
2019-03-25T08:31:05.985Z,7.61
2019-03-25T08:32:06.936Z,7.56
2019-03-25T08:33:08.837Z,7.66
2019-03-25T08:34:09.443Z,7.62
2019-03-25T08:35:08.953Z,7.67
2019-03-25T08:36:10.753Z,7.62
2019-03-25T08:37:12.165Z,7.69
2019-03-25T08:38:12.534Z,7.64
2019-03-25T08:39:15.439Z,7.61
2019-03-25T08:40:14.984Z,7.7
2019-03-25T08:41:16.053Z,7.61
2019-03-25T08:42:16.185Z,7.78
2019-03-25T08:43:17.504Z,7.78
2019-03-25T08:44:18.483Z,7.81
2019-03-25T08:45:18.547Z,7.83
2019-03-25T08:46:19.488Z,7.84
2019-03-25T08:47:19.986Z,7.85
2019-03-25T08:48:20.511Z,7.91
2019-03-25T08:49:20.374Z,7.9
2019-03-25T08:50:20.789Z,7.98
2019-03-25T08:51:21.341Z,8.02
2019-03-25T08:52:22.804Z,7.91
2019-03-25T08:53:23.724Z,7.99
2019-03-25T08:54:24.548Z,7.9
2019-03-25T08:55:26.541Z,7.99
2019-03-25T08:56:26.560Z,7.9
2019-03-25T08:57:27.447Z,7.9
2019-03-25T08:58:27.712Z,7.88
2019-03-25T08:59:28.114Z,7.87
2019-03-25T09:00:29.236Z,7.84
2019-03-25T09:01:29.563Z,7.87
2019-03-25T09:02:31.954Z,7.87
2019-03-25T09:03:32.331Z,7.88
2019-03-25T09:04:33.492Z,7.83
2019-03-25T09:05:33.950Z,7.81
2019-03-25T09:06:35.019Z,7.81
2019-03-25T09:07:36.152Z,7.83
2019-03-25T09:08:36.785Z,7.85
2019-03-25T09:09:37.014Z,7.85
2019-03-25T09:10:37.854Z,7.75
2019-03-25T09:11:38.351Z,7.83
2019-03-25T09:12:38.953Z,7.75
2019-03-25T09:13:39.977Z,7.83
2019-03-25T09:14:41.103Z,7.83
2019-03-25T09:15:41.403Z,7.81
2019-03-25T09:16:42.403Z,7.85
2019-03-25T09:17:43.331Z,7.85
2019-03-25T09:18:44.469Z,7.84
2019-03-25T09:19:45.637Z,7.78
2019-03-25T09:20:45.611Z,7.83
2019-03-25T09:21:46.172Z,7.83
2019-03-25T09:22:47.374Z,7.77
2019-03-25T09:23:48.187Z,7.74
2019-03-25T09:24:49.073Z,7.7
2019-03-25T09:25:49.418Z,7.69
2019-03-25T09:26:50.618Z,7.61
2019-03-25T09:27:51.188Z,7.64
2019-03-25T09:28:52.357Z,7.78
2019-03-25T09:29:52.577Z,7.77
2019-03-25T09:30:53.664Z,7.77
2019-03-25T09:31:54.238Z,7.67
2019-03-25T09:32:54.830Z,7.67
2019-03-25T09:33:55.908Z,7.51
2019-03-25T09:34:56.761Z,7.44
2019-03-25T09:35:57.738Z,7.44
2019-03-25T09:36:57.967Z,7.37
2019-03-25T09:37:59.128Z,7.32
2019-03-25T09:39:00.107Z,7.37
2019-03-25T09:40:01.086Z,7.41
2019-03-25T09:41:01.784Z,7.36
2019-03-25T09:42:02.444Z,7.32
2019-03-25T09:43:02.979Z,7.36
2019-03-25T09:44:03.739Z,7.29
2019-03-25T09:45:04.399Z,7.26
2019-03-25T09:46:04.920Z,7.25
2019-03-25T09:47:05.686Z,7.25
2019-03-25T09:48:06.507Z,7.15
2019-03-25T09:49:07.093Z,7.21
2019-03-25T09:50:07.947Z,7.22
2019-03-25T09:51:07.873Z,7.04
2019-03-25T09:52:09.526Z,7
2019-03-25T09:53:09.734Z,6.97
2019-03-25T09:54:11.048Z,6.93
2019-03-25T09:55:11.541Z,6.89
2019-03-25T09:56:12.019Z,6.82
2019-03-25T09:57:13.344Z,6.82
2019-03-25T09:58:14.415Z,6.74
2019-03-25T09:59:14.922Z,6.72
2019-03-25T10:00:15.751Z,6.7
2019-03-25T10:01:16.109Z,6.59
2019-03-25T10:02:16.874Z,6.59
2019-03-25T10:03:16.688Z,6.52
2019-03-25T10:04:20.361Z,6.44
2019-03-25T10:05:17.844Z,6.52
2019-03-25T10:06:18.393Z,6.47
2019-03-25T10:07:19.225Z,6.41
2019-03-25T10:08:19.996Z,6.54
2019-03-25T10:09:20.529Z,6.46
2019-03-25T10:10:21.092Z,6.52
2019-03-25T10:11:21.574Z,6.54
2019-03-25T10:12:22.637Z,6.47
2019-03-25T10:13:23.393Z,6.39
2019-03-25T10:14:24.156Z,6.43
2019-03-25T10:15:24.680Z,6.52
2019-03-25T10:16:25.448Z,6.44
2019-03-25T10:17:26.125Z,6.44
2019-03-25T10:18:26.605Z,6.41
2019-03-25T10:19:27.085Z,6.54
2019-03-25T10:20:27.291Z,6.52
2019-03-25T10:21:27.910Z,6.64
2019-03-25T10:22:28.670Z,6.59
2019-03-25T10:23:29.708Z,6.67
2019-03-25T10:24:30.080Z,6.74
2019-03-25T10:25:30.310Z,6.77
2019-03-25T10:26:31.068Z,6.75
2019-03-25T10:27:31.362Z,6.82
2019-03-25T10:28:32.124Z,6.8
2019-03-25T10:29:32.910Z,6.96
2019-03-25T10:30:33.460Z,7.03
2019-03-25T10:31:34.004Z,7.04
2019-03-25T10:32:35.334Z,7.03
2019-03-25T10:33:35.815Z,7.05
2019-03-25T10:34:36.302Z,7.03
2019-03-25T10:35:37.341Z,7.05
2019-03-25T10:36:39.388Z,7.11
2019-03-25T10:37:40.203Z,7.19
2019-03-25T10:38:40.586Z,7.22
2019-03-25T10:39:43.034Z,7.21
2019-03-25T10:40:42.789Z,7.22
2019-03-25T10:41:44.113Z,7.18
2019-03-25T10:42:44.608Z,7.21
2019-03-25T10:43:45.099Z,7.33
2019-03-25T10:44:46.499Z,7.41
2019-03-25T10:45:47.254Z,7.47
2019-03-25T10:46:49.017Z,7.53
2019-03-25T10:47:48.757Z,7.59
2019-03-25T10:48:49.684Z,7.53
2019-03-25T10:49:49.967Z,7.41
2019-03-25T10:50:51.045Z,7.32
2019-03-25T10:51:51.242Z,7.36
2019-03-25T10:52:51.722Z,7.41
2019-03-25T10:53:51.935Z,7.44
2019-03-25T10:54:53.780Z,7.47
2019-03-25T10:55:54.098Z,7.55
2019-03-25T10:56:55.139Z,7.51
2019-03-25T10:57:56.619Z,7.44
2019-03-25T10:59:01.373Z,7.46
2019-03-25T11:00:04.775Z,7.47
2019-03-25T11:00:12.637Z,7.41
2019-03-25T11:01:10.720Z,7.55
2019-03-25T11:02:11.204Z,7.47
2019-03-25T11:03:11.520Z,7.33
2019-03-25T11:04:12.566Z,7.37
2019-03-25T11:05:16.977Z,7.43
2019-03-25T11:06:18.768Z,7.46
2019-03-25T11:06:28.313Z,7.46
2019-03-25T11:06:47.229Z,7.36
2019-03-25T11:06:56.506Z,7.43
2019-03-25T11:07:56.590Z,7.46
2019-03-25T11:08:56.428Z,7.46
2019-03-25T11:09:57.196Z,7.43
2019-03-25T11:10:57.405Z,7.48
2019-03-25T11:11:59.256Z,7.43
2019-03-25T11:12:59.797Z,7.4
2019-03-25T11:14:00.837Z,7.39
2019-03-25T11:15:01.629Z,7.33
2019-03-25T11:16:03.099Z,7.41
2019-03-25T11:17:03.589Z,7.32
2019-03-25T11:18:06.736Z,7.32
2019-03-25T11:19:05.498Z,7.4
2019-03-25T11:20:06.534Z,7.4
2019-03-25T11:21:06.573Z,7.39
2019-03-25T11:22:07.050Z,7.39
2019-03-25T11:23:07.842Z,7.36
2019-03-25T11:24:08.051Z,7.47
2019-03-25T11:25:09.252Z,7.46
2019-03-25T11:26:08.864Z,7.47
2019-03-25T11:27:09.108Z,7.56
2019-03-25T11:28:12.161Z,7.56
2019-03-25T11:29:10.824Z,7.48
2019-03-25T11:30:11.876Z,7.56
2019-03-25T11:31:14.477Z,7.59
2019-03-25T11:32:14.604Z,7.7
2019-03-25T11:33:15.365Z,7.72
2019-03-25T11:34:16.003Z,7.55
2019-03-25T11:35:15.780Z,7.53
2019-03-25T11:36:16.544Z,7.36
2019-03-25T11:37:17.581Z,7.33
2019-03-25T11:38:18.680Z,7.19
2019-03-25T11:39:19.988Z,7.28
2019-03-25T11:40:20.758Z,7.23
2019-03-25T11:41:22.730Z,7.18
2019-03-25T11:42:21.915Z,7.18
2019-03-25T11:43:22.303Z,7.15
2019-03-25T11:44:23.269Z,7.08
2019-03-25T11:45:23.523Z,7.01
2019-03-25T11:46:25.196Z,6.96
2019-03-25T11:47:25.807Z,6.85
2019-03-25T11:48:26.588Z,6.87
2019-03-25T11:49:27.096Z,6.86
2019-03-25T11:50:27.944Z,6.75
2019-03-25T11:51:29.309Z,6.77
2019-03-25T11:52:30.131Z,6.83
2019-03-25T11:53:31.225Z,6.8
2019-03-25T11:54:34.066Z,6.9
2019-03-25T11:55:32.483Z,6.82
2019-03-25T11:56:32.987Z,6.9
2019-03-25T11:57:34.022Z,7.01
2019-03-25T11:58:34.861Z,7.15
2019-03-25T11:59:35.443Z,7.19
2019-03-25T12:00:35.927Z,7.21
2019-03-25T12:01:36.689Z,7.28
2019-03-25T12:02:37.726Z,7.22
2019-03-25T12:03:38.206Z,7.39
2019-03-25T12:04:39.240Z,7.33
2019-03-25T12:05:42.336Z,7.41
2019-03-25T12:06:43.486Z,7.47
2019-03-25T12:07:44.530Z,7.44
2019-03-25T12:08:44.832Z,7.47
2019-03-25T12:09:46.146Z,7.46
2019-03-25T12:10:47.187Z,7.56
2019-03-25T12:11:48.709Z,7.64
2019-03-25T12:12:48.787Z,7.62
2019-03-25T12:13:53.586Z,7.61
2019-03-25T12:14:02.669Z,7.62
2019-03-25T12:14:13.679Z,7.66
2019-03-25T12:14:21.477Z,7.7
2019-03-25T12:15:21.168Z,7.64
2019-03-25T12:16:22.825Z,7.7
2019-03-25T12:17:23.980Z,7.69
2019-03-25T12:18:25.169Z,7.67
2019-03-25T12:19:24.965Z,7.66
2019-03-25T12:20:26.057Z,7.61
2019-03-25T12:21:26.258Z,7.75
2019-03-25T12:22:27.067Z,7.7
2019-03-25T12:23:28.026Z,7.69
2019-03-25T12:24:29.106Z,7.66
2019-03-25T12:25:29.048Z,7.77
2019-03-25T12:26:29.805Z,7.66
2019-03-25T12:27:31.000Z,7.69
2019-03-25T12:28:35.421Z,7.7
2019-03-25T12:29:32.887Z,7.67
2019-03-25T12:30:33.368Z,7.62
2019-03-25T12:31:38.126Z,7.72
2019-03-25T12:31:46.979Z,7.67
2019-03-25T12:31:56.089Z,7.66
2019-03-25T12:33:05.213Z,7.66
2019-03-25T12:34:07.011Z,7.69
2019-03-25T12:35:06.906Z,7.78
2019-03-25T12:36:08.205Z,7.69
2019-03-25T12:37:10.755Z,7.8
2019-03-25T12:38:10.567Z,7.75
2019-03-25T12:39:11.010Z,7.8
2019-03-25T12:40:11.763Z,7.88
2019-03-25T12:41:13.194Z,7.84
2019-03-25T12:42:13.397Z,7.9
2019-03-25T12:43:14.712Z,7.78
2019-03-25T12:44:15.801Z,7.81
2019-03-25T12:45:16.302Z,7.67
2019-03-25T12:46:16.567Z,7.55
2019-03-25T12:47:17.100Z,7.58
2019-03-25T12:48:17.868Z,7.59
2019-03-25T12:49:18.382Z,7.46
2019-03-25T12:50:20.663Z,7.4
2019-03-25T12:51:20.781Z,7.48
2019-03-25T12:52:21.545Z,7.44
2019-03-25T12:53:22.305Z,7.55
2019-03-25T12:54:23.066Z,7.64
2019-03-25T12:55:23.675Z,7.64
2019-03-25T12:56:24.158Z,7.62
2019-03-25T12:57:24.975Z,7.64
2019-03-25T12:58:25.761Z,7.58
2019-03-25T12:59:26.909Z,7.72
2019-03-25T13:00:27.603Z,7.64
2019-03-25T13:01:27.807Z,7.7
2019-03-25T13:02:28.571Z,7.72
2019-03-25T13:03:28.605Z,7.77
2019-03-25T13:04:29.012Z,7.8
2019-03-25T13:05:29.799Z,7.78
2019-03-25T13:06:30.567Z,7.85
2019-03-25T13:07:30.602Z,7.88
2019-03-25T13:08:34.475Z,7.88
2019-03-25T13:09:35.570Z,7.98
2019-03-25T13:10:36.335Z,7.9
2019-03-25T13:11:36.860Z,7.88
2019-03-25T13:12:37.426Z,7.96